Riceton, Canada
Current Conditions -  °F | °C
As of 5:00 PM on Monday 22 Dec 2014 (Local Time) from CYQR Reporting Station
Haze Haze  
Wind Chill:   Ceiling: 500
Heat Index: 21°   Visibility: 5mi
Dew Point: 21°   Wind: 15mph
Humidity: 100%   Direction: 330°NNW
Pressure: 29.83"   Gusts: 22mph
Location:  50.1°N, 104.32°W
Report Text: CYQR 222300Z 33013G19KT 5SM BR OVC005 M06/M06 A2983 RMK ST8 CIG VRB 4-6 SLP138
Loading
Personal Weather Stations






























Interactive Weather Map New forecast layout! Learn more

10-Day Weather Forecast

Advertisements
Track Severe Weather on mobile